Big Springs, West Virginia
Current Conditions -  °F | °C
As of 6:53 AM on Thursday 18 Dec 2014 (Local Time) from KPKB Reporting Station
Overcast Overcast  
Wind Chill: 21°   Ceiling: 2200
Heat Index: 28°   Visibility: 10mi
Dew Point: 18°   Wind: 7mph
Humidity: 66%   Direction: 330°NNW
Pressure: 30.27"   Gusts: NA
Location:  38.99°N, 81.07°W
Report Text: KPKB 181153Z 33006KT 10SM OVC022 M02/M08 A3027 RMK AO2 SLP258 T10221078 11017 21022 50000
Loading
Personal Weather Stations






























Interactive Weather Map New forecast layout! Learn more

10-Day Weather Forecast

Advertisements
Track Severe Weather on mobile